Time;durP1;ratioP1;P1;durP2;ratioP2;P2;SDS_P1;SDS_P2;PMS_P1;PMS_P2;Temp;Humidity;BMP_temperature;BMP_pressure;BME280_temperature;BME280_humidity;BME280_pressure;Samples;Min_cycle;Max_cycle;Signal;HPM_P1;HPM_P2
2021/04/26 05:01:37;;;;;;;5.25;4.85;;;;;;;16.23;43.72;94891.00;5567747;23;20070;-78
2021/04/26 05:04:02;;;;;;;5.72;5.30;;;;;;;16.74;42.54;94898.84;4969637;28;20027;-78
2021/04/26 05:06:28;;;;;;;9.20;6.70;;;;;;;16.18;42.85;94889.00;4967173;28;20066;-78
2021/04/26 05:08:54;;;;;;;7.63;6.72;;;;;;;16.32;43.62;94901.00;4952995;28;20037;-80
2021/04/26 05:11:19;;;;;;;5.28;4.82;;;;;;;16.11;42.70;94897.88;4970862;28;20022;-78
2021/04/26 05:13:45;;;;;;;5.45;4.97;;;;;;;17.52;41.77;94894.06;4948591;28;20030;-77
2021/04/26 05:16:10;;;;;;;8.25;5.80;;;;;;;17.07;40.77;94886.38;4970343;28;20047;-80
2021/04/26 05:18:36;;;;;;;7.45;4.22;;;;;;;17.30;40.92;94897.06;4953961;28;20034;-77
2021/04/26 05:21:01;;;;;;;5.05;3.95;;;;;;;18.81;38.92;94898.16;4964705;28;20031;-79
2021/04/26 05:23:27;;;;;;;4.68;3.88;;;;;;;19.21;36.75;94905.44;4970506;28;20030;-78
2021/04/26 05:25:52;;;;;;;4.50;4.10;;;;;;;20.54;34.96;94898.50;4968558;28;20089;-79
2021/04/26 05:28:18;;;;;;;4.63;3.60;;;;;;;19.70;36.21;94891.16;4966777;28;20454;-77
2021/04/26 05:30:43;;;;;;;4.30;3.90;;;;;;;20.34;35.49;94891.00;4990034;28;20038;-77
2021/04/26 05:33:09;;;;;;;4.30;3.40;;;;;;;20.15;35.55;94897.41;4974656;28;20023;-77
2021/04/26 05:35:34;;;;;;;3.78;3.47;;;;;;;20.68;35.43;94906.94;4966588;28;20045;-77
2021/04/26 05:38:16;;;;;;;4.65;3.92;;;;;;;21.60;34.32;94918.88;4969364;28;20031;-77
2021/04/26 05:40:41;;;;;;;10.43;4.90;;;;;;;21.23;34.86;94912.44;4966650;28;20023;-77
2021/04/26 05:43:07;;;;;;;5.50;5.00;;;;;;;21.45;33.78;94919.41;4949707;28;20540;-78
2021/04/26 05:45:34;;;;;;;4.95;3.97;;;;;;;22.43;33.34;94912.72;4969543;28;20030;-77
2021/04/26 05:47:59;;;;;;;6.40;4.47;;;;;;;22.46;32.28;94896.38;4968815;28;20045;-77
2021/04/26 05:50:24;;;;;;;5.65;4.70;;;;;;;22.88;31.88;94904.56;4969841;28;20028;-78
2021/04/26 05:52:50;;;;;;;6.18;4.22;;;;;;;22.33;32.40;94896.75;4969538;28;20097;-78
2021/04/26 05:55:16;;;;;;;4.38;3.97;;;;;;;22.69;31.62;94893.53;4969341;28;20097;-77
2021/04/26 05:57:41;;;;;;;5.30;4.07;;;;;;;22.99;31.31;94885.09;4967208;28;20054;-77
2021/04/26 06:00:07;;;;;;;5.28;4.28;;;;;;;23.16;31.17;94880.53;4935671;29;20027;-76
2021/04/26 06:02:32;;;;;;;7.30;4.63;;;;;;;22.59;31.58;94880.97;4966626;28;20125;-77
2021/04/26 06:04:58;;;;;;;5.35;4.85;;;;;;;23.15;31.51;94884.22;4950684;28;20031;-79
2021/04/26 06:07:23;;;;;;;7.40;4.75;;;;;;;23.51;30.45;94878.22;4934324;29;20493;-80
2021/04/26 06:09:49;;;;;;;5.40;4.80;;;;;;;22.72;31.64;94877.19;4933435;28;20412;-79
2021/04/26 06:12:14;;;;;;;6.50;5.00;;;;;;;23.60;30.58;94892.56;4952182;28;20035;-79
2021/04/26 06:14:40;;;;;;;4.93;4.53;;;;;;;23.06;31.04;94888.34;4960027;28;20026;-79
2021/04/26 06:17:05;;;;;;;5.45;4.95;;;;;;;22.57;31.93;94890.19;4940380;28;20023;-80
2021/04/26 06:19:31;;;;;;;7.05;5.45;;;;;;;20.48;35.00;94889.69;4943841;28;20030;-79
2021/04/26 06:21:56;;;;;;;5.57;4.85;;;;;;;19.53;37.26;94879.72;4956826;28;20492;-80
2021/04/26 06:24:22;;;;;;;5.90;5.30;;;;;;;19.12;37.79;94891.84;4966733;28;20502;-79
2021/04/26 06:26:47;;;;;;;5.55;5.05;;;;;;;19.11;38.37;94887.59;4960353;28;20035;-79
2021/04/26 06:29:12;;;;;;;6.60;5.32;;;;;;;19.80;36.61;94891.38;4927465;29;20481;-80
2021/04/26 06:31:38;;;;;;;5.63;5.07;;;;;;;19.65;37.05;94885.78;4968485;28;20476;-80
2021/04/26 06:34:04;;;;;;;8.20;5.63;;;;;;;21.41;34.37;94878.78;4968932;28;20039;-79
2021/04/26 06:36:29;;;;;;;6.72;4.95;;;;;;;20.02;36.62;94883.72;4962740;28;20035;-78
2021/04/26 06:38:55;;;;;;;6.18;4.95;;;;;;;19.53;36.85;94885.75;4972909;28;20109;-76
2021/04/26 06:41:20;;;;;;;6.60;4.65;;;;;;;19.65;37.29;94878.69;4933860;28;20027;-79
2021/04/26 06:43:45;;;;;;;6.40;4.85;;;;;;;18.57;39.99;94888.56;4951212;28;20042;-79
2021/04/26 06:46:11;;;;;;;4.97;4.53;;;;;;;18.96;39.66;94887.22;4967561;28;20081;-79
2021/04/26 06:48:36;;;;;;;4.20;3.90;;;;;;;19.77;39.23;94886.59;4967178;28;20078;-79
2021/04/26 06:51:02;;;;;;;4.95;4.43;;;;;;;20.29;37.10;94883.00;4949091;28;20023;-79
2021/04/26 06:53:27;;;;;;;4.72;4.20;;;;;;;22.41;34.12;94883.13;4963945;28;20506;-79
2021/04/26 06:55:53;;;;;;;4.78;4.38;;;;;;;23.61;31.50;94870.38;4967832;28;20510;-79
2021/04/26 06:58:18;;;;;;;5.57;4.63;;;;;;;25.31;30.77;94870.59;4950279;28;20484;-78
2021/04/26 07:00:44;;;;;;;5.15;4.40;;;;;;;24.28;30.78;94868.94;4951163;28;20030;-79
2021/04/26 07:03:09;;;;;;;5.20;4.78;;;;;;;23.19;31.72;94864.16;4954076;28;20054;-79
2021/04/26 07:05:35;;;;;;;5.22;4.82;;;;;;;23.64;31.72;94869.06;4955117;28;20033;-80
2021/04/26 07:08:00;;;;;;;8.05;5.95;;;;;;;19.08;36.86;94856.53;4944292;28;20050;-79
2021/04/26 07:10:26;;;;;;;7.65;6.95;;;;;;;16.74;43.04;94868.25;4959022;28;20023;-80
2021/04/26 07:12:51;;;;;;;7.00;6.30;;;;;;;18.47;41.93;94863.84;4967491;28;20431;-78
2021/04/26 07:15:17;;;;;;;8.93;6.38;;;;;;;18.15;41.67;94871.88;4968196;28;20054;-78
2021/04/26 07:17:42;;;;;;;6.97;6.38;;;;;;;17.54;44.37;94866.63;4951292;28;20050;-78
2021/04/26 07:20:09;;;;;;;7.03;6.32;;;;;;;19.21;41.40;94876.56;4968664;28;20026;-79
2021/04/26 07:22:34;;;;;;;6.32;5.75;;;;;;;19.02;40.70;94878.47;4951536;28;20041;-78
2021/04/26 07:25:00;;;;;;;6.82;6.13;;;;;;;18.95;40.70;94872.50;4968031;28;20034;-81
2021/04/26 07:27:26;;;;;;;8.95;6.25;;;;;;;18.51;42.27;94865.84;4967003;28;20038;-81
2021/04/26 07:29:51;;;;;;;8.75;5.38;;;;;;;19.04;40.90;94868.53;4969269;28;20027;-81
2021/04/26 07:32:17;;;;;;;6.22;5.63;;;;;;;19.75;40.51;94863.16;4951735;28;20110;-81
2021/04/26 07:34:42;;;;;;;8.07;6.60;;;;;;;19.14;41.55;94871.41;4935663;28;20035;-83
2021/04/26 07:37:08;;;;;;;7.28;4.97;;;;;;;18.73;40.79;94869.56;4968179;28;20038;-82
2021/04/26 07:39:33;;;;;;;10.30;5.13;;;;;;;19.05;40.53;94875.38;4950993;28;20045;-83
2021/04/26 07:41:59;;;;;;;9.10;5.93;;;;;;;18.83;40.23;94874.28;4967941;28;20830;-85
2021/04/26 07:44:26;;;;;;;5.93;4.55;;;;;;;19.73;38.90;94875.72;4966974;28;20031;-81
2021/04/26 07:46:51;;;;;;;7.38;5.45;;;;;;;19.80;39.07;94878.25;4952231;28;20121;-82
2021/04/26 07:49:17;;;;;;;9.25;5.00;;;;;;;19.18;39.90;94877.00;4951265;28;20113;-84
2021/04/26 07:51:42;;;;;;;6.78;5.40;;;;;;;19.14;41.19;94878.47;4967918;28;20027;-82
2021/04/26 07:54:08;;;;;;;5.05;4.55;;;;;;;19.31;40.18;94882.06;4967766;28;20023;-82
2021/04/26 07:56:34;;;;;;;6.40;5.05;;;;;;;18.53;41.49;94876.09;4968108;28;20031;-82
2021/04/26 07:59:00;;;;;;;5.68;5.07;;;;;;;18.77;42.47;94881.25;4968052;28;20034;-84
2021/04/26 08:01:25;;;;;;;7.18;5.00;;;;;;;19.16;41.84;94873.81;4966562;28;20047;-81
2021/04/26 08:03:51;;;;;;;6.28;4.82;;;;;;;19.35;42.32;94880.59;4966734;28;20031;-81
2021/04/26 08:06:16;;;;;;;5.13;4.63;;;;;;;19.26;42.13;94874.88;4967035;28;20023;-82
2021/04/26 08:08:42;;;;;;;6.82;4.13;;;;;;;19.76;39.61;94858.69;4965545;28;20035;-82
2021/04/26 08:11:08;;;;;;;5.40;4.78;;;;;;;18.21;40.74;94867.56;4965901;28;20423;-80
2021/04/26 08:13:33;;;;;;;10.70;4.65;;;;;;;19.23;42.96;94864.00;4970806;28;20886;-83
2021/04/26 08:15:59;;;;;;;4.82;4.43;;;;;;;19.60;39.32;94854.13;4965456;28;20468;-83
2021/04/26 08:18:24;;;;;;;4.57;4.22;;;;;;;19.03;40.87;94853.81;4949754;28;20038;-80
2021/04/26 08:20:50;;;;;;;5.18;4.38;;;;;;;19.33;40.30;94854.53;4966785;28;20086;-82
2021/04/26 08:23:16;;;;;;;8.98;4.95;;;;;;;19.57;41.34;94851.97;4950814;28;20053;-83
2021/04/26 08:25:42;;;;;;;5.15;4.15;;;;;;;19.89;39.64;94856.63;4966711;28;20066;-87
2021/04/26 08:28:07;;;;;;;5.07;4.57;;;;;;;19.61;42.38;94850.47;4966323;28;20035;-83
2021/04/26 08:30:33;;;;;;;6.03;4.45;;;;;;;20.06;41.02;94853.28;4963085;28;20063;-81
2021/04/26 08:32:59;;;;;;;5.07;4.13;;;;;;;19.11;42.17;94860.53;4938093;28;20039;-80
2021/04/26 08:35:24;;;;;;;5.13;3.80;;;;;;;20.09;38.61;94848.38;4949345;28;20121;-78
2021/04/26 08:37:50;;;;;;;5.25;4.75;;;;;;;19.26;40.73;94858.31;4979636;28;20353;-78
2021/04/26 08:40:15;;;;;;;8.05;4.65;;;;;;;19.62;40.09;94842.34;4969017;28;20027;-77
2021/04/26 08:42:41;;;;;;;4.53;4.13;;;;;;;19.48;41.68;94858.59;4964798;28;20484;-78
2021/04/26 08:45:07;;;;;;;5.13;3.80;;;;;;;19.66;39.44;94855.84;4962644;28;20027;-78
2021/04/26 08:47:33;;;;;;;7.03;3.88;;;;;;;20.41;38.06;94844.31;4932158;28;20045;-77
2021/04/26 08:49:58;;;;;;;3.85;3.40;;;;;;;20.22;37.75;94855.22;4963547;28;20042;-79
2021/04/26 08:52:25;;;;;;;5.38;3.30;;;;;;;20.43;40.98;94855.41;4967461;28;20034;-76
2021/04/26 08:54:51;;;;;;;4.95;3.97;;;;;;;19.80;41.57;94860.66;4965122;28;20435;-77
2021/04/26 08:57:16;;;;;;;6.03;4.35;;;;;;;18.91;41.85;94860.88;4942640;29;20022;-77
2021/04/26 08:59:43;;;;;;;5.75;3.42;;;;;;;18.62;32.34;94856.44;4933952;29;20118;-78
2021/04/26 09:02:09;;;;;;;6.07;3.80;;;;;;;20.23;36.72;94849.69;4933856;29;20419;-77
2021/04/26 09:04:35;;;;;;;5.38;3.83;;;;;;;20.55;39.13;94849.31;4918357;29;20555;-80
2021/04/26 09:07:06;;;;;;;4.78;3.78;;;;;;;18.70;37.07;94843.78;4949742;29;20587;-80
2021/04/26 09:09:36;;;;;;;6.65;3.15;;;;;;;19.72;37.45;94836.50;4933091;29;20034;-79
2021/04/26 09:12:02;;;;;;;5.38;3.25;;;;;;;20.51;36.12;94835.81;4934372;29;20031;-80
2021/04/26 09:14:44;;;;;;;4.30;3.22;;;;;;;20.12;34.36;94834.75;4949056;29;20070;-78
2021/04/26 09:17:33;;;;;;;5.30;3.20;;;;;;;20.65;35.15;94833.69;4960637;28;20072;-78
2021/04/26 09:20:03;;;;;;;5.10;3.40;;;;;;;20.63;35.58;94828.66;4965496;28;20046;-80
2021/04/26 09:22:40;;;;;;;4.22;3.63;;;;;;;20.73;35.64;94830.69;4967144;28;20027;-77
2021/04/26 09:25:24;;;;;;;3.50;3.20;;;;;;;20.64;35.39;94832.91;4944052;28;20019;-80
2021/04/26 09:27:56;;;;;;;5.75;2.60;;;;;;;20.57;30.89;94834.06;4967224;28;20483;-80
2021/04/26 09:30:56;;;;;;;5.80;3.38;;;;;;;20.93;33.18;94826.56;4967604;28;20042;-80
2021/04/26 09:33:40;;;;;;;4.90;3.00;;;;;;;20.25;36.24;94820.53;4967420;28;20066;-80
2021/04/26 09:36:20;;;;;;;6.13;2.65;;;;;;;20.78;32.56;94821.03;4960024;28;20043;-79
2021/04/26 09:38:54;;;;;;;3.22;2.67;;;;;;;20.99;31.33;94820.38;4969496;28;20022;-79
2021/04/26 09:41:24;;;;;;;3.72;2.47;;;;;;;21.14;31.22;94813.75;4933294;28;20125;-79
2021/04/26 09:43:50;;;;;;;4.30;2.47;;;;;;;18.85;34.25;94817.91;4971058;28;20022;-79
2021/04/26 09:46:16;;;;;;;3.03;2.45;;;;;;;20.74;31.92;94809.38;4974148;28;20493;-80
2021/04/26 09:48:42;;;;;;;2.85;2.20;;;;;;;21.02;29.49;94811.97;4970713;28;20424;-79
2021/04/26 09:51:21;;;;;;;2.70;2.33;;;;;;;19.74;30.59;94814.25;4954186;28;20058;-77
2021/04/26 09:53:53;;;;;;;3.83;2.50;;;;;;;20.15;30.19;94810.63;4956459;28;20492;-79
2021/04/26 09:56:18;;;;;;;3.40;2.63;;;;;;;20.35;30.47;94805.78;4966796;28;20432;-80
2021/04/26 09:58:45;;;;;;;4.22;2.50;;;;;;;20.25;29.70;94797.66;4968315;28;20034;-79
2021/04/26 10:01:11;;;;;;;3.00;2.08;;;;;;;19.36;28.49;94800.75;4950024;28;20109;-81
2021/04/26 10:03:37;;;;;;;3.00;2.72;;;;;;;19.16;28.48;94800.28;4932483;29;20130;-76
2021/04/26 10:06:02;;;;;;;4.72;2.70;;;;;;;19.42;29.30;94798.03;4966444;28;20027;-81
2021/04/26 10:08:28;;;;;;;2.92;2.63;;;;;;;19.22;29.28;94792.28;4968886;28;20022;-81
2021/04/26 10:10:54;;;;;;;2.78;2.50;;;;;;;18.62;29.06;94788.22;4966455;28;20030;-78
2021/04/26 10:13:21;;;;;;;4.15;3.00;;;;;;;19.09;28.08;94778.59;4968312;28;20030;-80
2021/04/26 10:15:54;;;;;;;4.05;3.40;;;;;;;18.44;28.20;94779.34;4935459;28;20026;-80
2021/04/26 10:18:19;;;;;;;5.05;3.33;;;;;;;19.31;28.82;94775.16;4950977;28;20127;-80
2021/04/26 10:20:44;;;;;;;2.60;2.40;;;;;;;19.39;27.77;94774.03;4951041;28;20391;-80
2021/04/26 10:23:36;;;;;;;2.55;2.25;;;;;;;18.84;27.19;94776.16;4970794;28;20034;-80
2021/04/26 10:26:01;;;;;;;4.05;2.63;;;;;;;19.48;28.37;94775.31;4970436;28;20029;-79
2021/04/26 10:28:28;;;;;;;2.33;2.05;;;;;;;19.16;28.13;94780.09;4957186;28;20042;-80
2021/04/26 10:30:57;;;;;;;4.88;2.50;;;;;;;20.10;29.14;94780.81;4974369;28;20015;-81
2021/04/26 10:33:22;;;;;;;3.53;2.15;;;;;;;19.72;28.98;94773.44;4962539;28;20031;-79
2021/04/26 10:35:51;;;;;;;5.05;2.15;;;;;;;20.36;28.35;94775.00;4972382;28;20188;-83
2021/04/26 10:38:36;;;;;;;2.53;2.10;;;;;;;19.89;27.52;94754.09;4975612;28;20100;-79
2021/04/26 10:41:02;;;;;;;2.35;2.13;;;;;;;20.03;27.71;94754.63;4977012;28;20034;-82
2021/04/26 10:43:30;;;;;;;2.78;2.53;;;;;;;19.60;27.30;94738.50;4975991;28;20078;-80
2021/04/26 10:46:14;;;;;;;3.08;2.20;;;;;;;21.21;28.49;94738.81;4976101;28;20033;-80
2021/04/26 10:49:05;;;;;;;3.85;2.08;;;;;;;20.24;29.69;94730.31;4972399;28;20496;-79
2021/04/26 10:51:32;;;;;;;3.20;2.20;;;;;;;20.46;26.75;94723.34;4954544;28;20046;-80
2021/04/26 10:53:57;;;;;;;2.95;2.38;;;;;;;20.46;25.79;94723.34;4934986;28;20110;-83
2021/04/26 10:56:33;;;;;;;4.70;1.92;;;;;;;20.09;26.00;94718.69;4962807;28;20045;-80
2021/04/26 10:59:13;;;;;;;3.20;2.10;;;;;;;19.98;27.28;94720.34;4966779;28;20019;-77
2021/04/26 11:01:49;;;;;;;4.40;2.20;;;;;;;19.61;26.43;94706.75;4967876;28;20424;-81
2021/04/26 11:04:14;;;;;;;1.95;1.75;;;;;;;20.08;26.60;94711.84;4951379;28;20027;-81
2021/04/26 11:06:40;;;;;;;2.85;2.38;;;;;;;20.01;26.32;94704.09;4966171;28;20118;-78
2021/04/26 11:09:15;;;;;;;3.30;2.20;;;;;;;20.40;26.29;94702.44;4967497;28;20027;-78
2021/04/26 11:11:53;;;;;;;3.97;2.15;;;;;;;20.38;26.32;94699.28;4966284;28;20122;-82
2021/04/26 11:14:23;;;;;;;2.70;1.85;;;;;;;20.04;25.42;94693.09;4948949;28;20667;-82
2021/04/26 11:17:08;;;;;;;4.40;1.85;;;;;;;20.32;26.25;94692.31;4956307;28;20041;-81
2021/04/26 11:19:54;;;;;;;3.25;1.83;;;;;;;20.52;26.43;94697.13;4920364;29;20547;-81
2021/04/26 11:22:32;;;;;;;2.65;1.80;;;;;;;20.89;27.37;94690.34;4934106;29;20031;-80
2021/04/26 11:25:00;;;;;;;2.30;1.95;;;;;;;20.68;25.91;94691.84;4947458;29;20401;-81
2021/04/26 11:27:25;;;;;;;4.03;2.50;;;;;;;20.39;25.86;94679.78;4946905;28;20035;-80
2021/04/26 11:29:52;;;;;;;2.63;2.13;;;;;;;21.02;25.92;94674.22;4948674;29;20180;-80
2021/04/26 11:32:18;;;;;;;3.22;1.80;;;;;;;20.47;25.66;94669.69;4946932;29;20035;-80
2021/04/26 11:34:43;;;;;;;2.80;2.00;;;;;;;20.71;24.99;94672.19;4948756;29;20061;-79
2021/04/26 11:37:09;;;;;;;2.17;1.80;;;;;;;20.60;26.86;94665.94;4948195;29;20039;-80
2021/04/26 11:39:36;;;;;;;2.60;2.15;;;;;;;21.61;27.49;94661.31;4949156;28;20579;-80
2021/04/26 11:42:01;;;;;;;3.83;2.05;;;;;;;21.74;27.17;94660.91;4948868;28;20026;-82
2021/04/26 11:44:31;;;;;;;8.63;2.35;;;;;;;22.00;26.57;94660.19;4949039;28;20101;-81
2021/04/26 11:47:08;;;;;;;2.92;2.13;;;;;;;22.00;25.81;94655.72;4950311;28;20030;-79
2021/04/26 11:49:43;;;;;;;4.55;2.58;;;;;;;21.80;25.22;94654.69;4950569;28;20463;-77
2021/04/26 11:52:22;;;;;;;2.40;1.77;;;;;;;20.85;25.92;94647.91;4951391;28;20113;-81
2021/04/26 11:55:05;;;;;;;2.78;1.70;;;;;;;19.96;24.95;94631.19;4965624;28;20129;-78
2021/04/26 11:57:48;;;;;;;2.97;1.52;;;;;;;20.97;27.04;94637.25;4966405;28;20622;-80
2021/04/26 12:00:32;;;;;;;2.00;1.80;;;;;;;21.32;25.09;94632.47;4935129;28;20069;-80
2021/04/26 12:03:02;;;;;;;2.72;2.53;;;;;;;21.16;27.38;94628.06;4943458;28;20057;-81
2021/04/26 12:05:28;;;;;;;2.88;2.35;;;;;;;21.38;27.81;94625.47;4945436;28;20472;-81
2021/04/26 12:07:54;;;;;;;3.15;2.22;;;;;;;21.64;26.52;94629.19;4969713;28;20061;-80
2021/04/26 12:10:26;;;;;;;4.05;2.40;;;;;;;21.06;24.69;94625.28;4957418;28;20410;-81
2021/04/26 12:12:55;;;;;;;2.95;1.83;;;;;;;21.71;26.39;94625.28;4969385;28;20040;-81
2021/04/26 12:15:22;;;;;;;3.25;2.08;;;;;;;21.86;27.46;94622.03;4959894;28;20550;-79
2021/04/26 12:17:59;;;;;;;2.53;2.33;;;;;;;21.46;25.15;94615.28;4964001;28;20023;-83
2021/04/26 12:20:29;;;;;;;5.70;2.97;;;;;;;21.34;26.16;94609.34;4959230;28;20058;-80
2021/04/26 12:22:57;;;;;;;3.45;2.30;;;;;;;22.10;27.36;94601.44;4955140;28;20030;-80
2021/04/26 12:25:23;;;;;;;2.88;1.80;;;;;;;21.62;26.82;94597.78;4970843;28;20039;-81
2021/04/26 12:27:59;;;;;;;2.35;2.10;;;;;;;22.22;27.22;94596.81;4970852;28;20051;-81
2021/04/26 12:30:25;;;;;;;3.47;2.40;;;;;;;22.32;27.88;94589.75;4971330;28;20482;-80
2021/04/26 12:32:53;;;;;;;5.60;2.60;;;;;;;21.58;28.32;94595.91;4971609;28;20057;-81
2021/04/26 12:35:29;;;;;;;4.10;2.30;;;;;;;21.83;26.46;94590.88;4972203;28;20030;-80
2021/04/26 12:37:59;;;;;;;4.30;2.30;;;;;;;21.58;26.03;94591.41;4971551;28;20106;-81
2021/04/26 12:40:30;;;;;;;;;;;;;;;21.46;26.73;94580.22;4970370;28;20034;-81
2021/04/26 12:43:06;;;;;;;2.55;2.17;;;;;;;20.84;27.99;94571.75;4969005;28;19914;-80
2021/04/26 12:45:34;;;;;;;3.58;2.30;;;;;;;20.17;26.51;94574.44;4970504;28;20031;-81
2021/04/26 12:48:01;;;;;;;2.88;2.63;;;;;;;21.14;27.52;94580.09;4970529;28;20046;-82
2021/04/26 12:50:32;;;;;;;2.50;2.30;;;;;;;20.86;27.42;94570.50;4953081;28;20393;-81
2021/04/26 12:53:17;;;;;;;4.38;2.40;;;;;;;21.38;27.77;94565.63;4970976;28;20113;-80
2021/04/26 12:55:53;;;;;;;2.75;1.88;;;;;;;21.16;27.64;94566.69;4968211;28;20558;-79
2021/04/26 12:58:25;;;;;;;2.88;2.10;;;;;;;21.45;28.76;94562.78;4953057;28;20498;-81
2021/04/26 13:01:01;;;;;;;4.90;2.30;;;;;;;21.75;24.53;94560.47;4970468;28;20034;-79
2021/04/26 13:03:36;;;;;;;6.80;2.25;;;;;;;21.78;24.30;94552.06;4953570;28;20046;-80
2021/04/26 13:06:10;;;;;;;5.43;2.28;;;;;;;21.81;24.14;94550.75;4968549;28;20031;-80
2021/04/26 13:08:36;;;;;;;2.30;2.10;;;;;;;22.13;26.88;94553.44;4969002;28;20031;-78
2021/04/26 13:11:04;;;;;;;3.00;2.08;;;;;;;22.51;27.72;94558.47;4970358;28;20027;-77
2021/04/26 13:13:30;;;;;;;3.65;2.20;;;;;;;22.03;25.21;94556.78;4968041;28;20039;-79
2021/04/26 13:15:55;;;;;;;2.30;2.10;;;;;;;21.75;26.88;94549.13;4942642;28;20531;-80
2021/04/26 13:18:22;;;;;;;2.25;1.75;;;;;;;21.65;26.44;94546.38;4960248;28;20060;-80
2021/04/26 13:21:40;;;;;;;2.38;2.17;;;;;;;21.70;26.83;94530.63;4944851;28;20058;-79
2021/04/26 13:24:20;;;;;;;3.00;2.28;;;;;;;21.42;26.76;94537.72;4968528;28;20492;-79
2021/04/26 13:26:54;;;;;;;3.70;2.00;;;;;;;21.36;26.35;94543.19;4969048;28;20066;-79
2021/04/26 13:29:20;;;;;;;2.30;2.10;;;;;;;21.17;27.71;94540.09;4970425;28;20031;-81
2021/04/26 13:31:47;;;;;;;3.08;2.28;;;;;;;21.35;27.53;94534.50;4964420;28;20019;-82
2021/04/26 13:34:13;;;;;;;4.15;2.00;;;;;;;21.81;29.06;94524.41;4962865;28;20114;-80
2021/04/26 13:36:38;;;;;;;4.18;2.60;;;;;;;20.25;26.00;94521.47;4939419;28;20205;-78
2021/04/26 13:39:05;;;;;;;2.17;1.77;;;;;;;20.38;25.58;94525.63;4960853;28;20035;-79
2021/04/26 13:41:31;;;;;;;2.67;2.40;;;;;;;20.77;27.31;94519.31;4957959;28;20027;-79
2021/04/26 13:43:56;;;;;;;4.30;2.40;;;;;;;21.16;29.81;94511.38;4941601;29;20023;-80
2021/04/26 13:46:22;;;;;;;3.08;2.20;;;;;;;21.56;30.16;94511.78;4933364;29;20031;-79
2021/04/26 13:48:47;;;;;;;5.22;2.50;;;;;;;22.15;29.34;94509.16;4957164;28;20420;-80
2021/04/26 13:51:12;;;;;;;2.67;2.15;;;;;;;22.52;28.85;94505.44;4964037;28;20035;-79
2021/04/26 13:53:38;;;;;;;2.30;2.08;;;;;;;22.62;29.02;94503.91;4973310;28;20527;-79
2021/04/26 13:56:05;;;;;;;2.80;2.13;;;;;;;22.64;27.33;94502.56;4962362;28;20031;-79
2021/04/26 13:58:30;;;;;;;2.30;1.83;;;;;;;22.48;27.28;94508.81;4969741;28;20059;-79
2021/04/26 14:00:56;;;;;;;2.67;2.28;;;;;;;22.17;28.32;94499.13;4946572;28;20055;-80
2021/04/26 14:03:22;;;;;;;3.22;1.90;;;;;;;21.84;28.85;94500.97;4961794;28;20499;-78
2021/04/26 14:05:48;;;;;;;4.22;1.77;;;;;;;21.95;29.70;94497.41;4957716;28;20467;-79
2021/04/26 14:08:13;;;;;;;3.83;2.13;;;;;;;21.62;29.18;94494.97;4963265;28;20038;-78
2021/04/26 14:10:40;;;;;;;2.65;2.10;;;;;;;21.55;28.99;94497.00;4975880;28;20031;-79
2021/04/26 14:13:05;;;;;;;2.63;2.05;;;;;;;21.22;29.69;94498.00;4971149;28;20038;-78
2021/04/26 14:15:31;;;;;;;2.70;2.50;;;;;;;20.95;30.23;94494.50;4968518;28;20102;-79
2021/04/26 14:17:57;;;;;;;3.80;2.13;;;;;;;20.78;31.42;94499.81;4956830;28;20027;-78
2021/04/26 14:20:23;;;;;;;2.42;1.98;;;;;;;20.75;31.02;94496.88;4946395;28;20098;-78
2021/04/26 14:22:48;;;;;;;3.85;2.00;;;;;;;20.72;30.20;94495.53;4944332;28;20027;-79
2021/04/26 14:25:14;;;;;;;5.93;2.13;;;;;;;20.75;29.58;94491.63;4959491;28;20031;-78
2021/04/26 14:27:40;;;;;;;4.32;2.15;;;;;;;20.89;29.99;94484.97;4947101;28;20034;-79
2021/04/26 14:30:07;;;;;;;2.67;2.00;;;;;;;21.01;29.30;94493.50;4965198;28;20035;-79
2021/04/26 14:32:32;;;;;;;3.03;2.10;;;;;;;20.52;27.97;94477.66;4949086;28;20581;-78
2021/04/26 14:34:58;;;;;;;5.55;1.92;;;;;;;21.04;28.22;94477.22;4943430;28;20026;-79
2021/04/26 14:37:24;;;;;;;2.97;2.22;;;;;;;20.85;28.02;94468.06;4964834;28;20035;-79
2021/04/26 14:39:50;;;;;;;2.00;1.85;;;;;;;21.12;27.60;94468.94;4957786;28;20031;-79
2021/04/26 14:42:16;;;;;;;2.35;1.73;;;;;;;20.52;27.19;94466.31;4965006;28;20023;-79
2021/04/26 14:44:42;;;;;;;1.75;1.65;;;;;;;21.02;27.59;94469.59;4968752;28;20023;-79
2021/04/26 14:47:07;;;;;;;3.50;1.90;;;;;;;21.26;27.42;94464.84;4968600;28;20535;-78
2021/04/26 14:49:33;;;;;;;3.88;1.80;;;;;;;21.39;28.50;94461.81;4951730;28;20062;-78
2021/04/26 14:51:58;;;;;;;4.30;2.17;;;;;;;21.33;28.32;94462.81;4941349;28;20427;-78
2021/04/26 14:54:23;;;;;;;4.05;2.20;;;;;;;21.13;27.01;94469.72;4922874;28;20648;-78
2021/04/26 14:56:49;;;;;;;3.47;2.35;;;;;;;20.86;26.89;94459.13;4965308;28;20027;-79
2021/04/26 14:59:15;;;;;;;3.70;2.03;;;;;;;20.95;27.76;94455.00;4944208;28;20030;-79
2021/04/26 15:01:45;;;;;;;2.78;2.42;;;;;;;21.12;28.81;94455.75;4945073;28;20043;-79
2021/04/26 15:04:11;;;;;;;4.13;2.03;;;;;;;21.23;28.30;94446.09;4960136;28;20046;-78
2021/04/26 15:06:37;;;;;;;3.10;2.10;;;;;;;21.09;29.80;94448.34;4969751;28;20027;-78
2021/04/26 15:09:04;;;;;;;4.93;1.90;;;;;;;20.60;26.19;94447.50;4985895;28;20034;-78
2021/04/26 15:11:29;;;;;;;3.40;2.15;;;;;;;20.78;26.94;94444.53;4953356;28;20459;-79
2021/04/26 15:13:57;;;;;;;3.15;1.95;;;;;;;20.89;28.64;94448.09;4934803;28;20459;-78
2021/04/26 15:16:22;;;;;;;2.65;1.92;;;;;;;20.61;28.75;94435.13;4966718;28;20034;-79
2021/04/26 15:18:48;;;;;;;3.40;2.03;;;;;;;20.54;28.36;94439.78;4929985;28;20372;-78
2021/04/26 15:21:13;;;;;;;6.28;1.98;;;;;;;20.42;28.38;94443.31;4947497;28;20053;-79
2021/04/26 15:23:39;;;;;;;2.78;1.83;;;;;;;20.52;30.05;94440.81;4968385;28;20038;-79
2021/04/26 15:26:04;;;;;;;4.15;1.83;;;;;;;20.57;30.56;94442.72;4966564;28;20035;-79
2021/04/26 15:28:30;;;;;;;4.28;2.35;;;;;;;20.32;30.65;94432.69;4935817;28;20046;-79
2021/04/26 15:30:56;;;;;;;1.63;1.50;;;;;;;20.18;33.25;94431.41;4949763;28;20033;-80
2021/04/26 15:33:21;;;;;;;3.90;2.20;;;;;;;20.24;32.19;94419.09;4935634;28;20043;-80
2021/04/26 15:35:53;;;;;;;2.33;2.13;;;;;;;20.26;31.02;94419.69;4951338;28;20115;-80
2021/04/26 15:38:19;;;;;;;2.60;1.88;;;;;;;20.40;29.50;94419.09;4935389;28;20069;-79
2021/04/26 15:40:45;;;;;;;2.47;1.90;;;;;;;20.39;30.59;94412.22;4934956;28;20510;-79
2021/04/26 15:43:10;;;;;;;5.68;3.25;;;;;;;20.34;30.16;94411.38;4950699;28;20039;-78
2021/04/26 15:45:36;;;;;;;2.88;2.65;;;;;;;20.43;31.26;94415.97;4951417;28;20030;-78
2021/04/26 15:48:02;;;;;;;2.40;2.20;;;;;;;20.19;29.58;94405.91;4935981;28;20137;-77
2021/04/26 15:50:29;;;;;;;4.47;2.47;;;;;;;20.19;31.89;94406.69;4966277;28;20599;-79
2021/04/26 15:52:56;;;;;;;2.05;1.88;;;;;;;20.19;31.00;94398.00;4933555;28;20089;-78
2021/04/26 15:55:21;;;;;;;4.15;2.25;;;;;;;20.10;32.74;94402.09;4965837;28;20030;-79
2021/04/26 15:57:47;;;;;;;6.32;2.25;;;;;;;20.03;32.15;94401.47;4966064;28;20038;-79
2021/04/26 16:00:13;;;;;;;8.13;3.60;;;;;;;20.12;32.43;94406.06;4967296;28;20038;-79
2021/04/26 16:02:39;;;;;;;6.85;3.10;;;;;;;20.11;31.11;94409.72;4966000;28;20171;-80
2021/04/26 16:05:05;;;;;;;7.90;2.65;;;;;;;20.07;29.96;94405.97;4966156;28;20031;-79
2021/04/26 16:07:30;;;;;;;5.50;2.30;;;;;;;20.14;30.82;94416.34;4966986;28;20058;-79
2021/04/26 16:09:56;;;;;;;2.67;2.20;;;;;;;20.02;30.62;94411.19;4955000;28;20031;-79
2021/04/26 16:12:21;;;;;;;5.20;2.15;;;;;;;20.03;30.26;94412.00;4940259;28;20439;-79
2021/04/26 16:14:47;;;;;;;3.17;2.40;;;;;;;19.90;31.16;94418.38;4965698;28;20023;-79
2021/04/26 16:17:12;;;;;;;3.08;2.50;;;;;;;19.78;30.91;94417.66;4930434;29;20038;-77
2021/04/26 16:19:38;;;;;;;2.95;2.10;;;;;;;19.71;31.24;94414.41;4947617;29;20027;-77
2021/04/26 16:22:03;;;;;;;2.78;2.58;;;;;;;19.59;32.15;94416.31;4933706;28;20491;-76
2021/04/26 16:24:30;;;;;;;5.32;2.60;;;;;;;19.46;32.44;94412.19;4950244;28;20046;-76
2021/04/26 16:26:58;;;;;;;2.88;2.35;;;;;;;19.22;33.47;94408.88;4950183;28;20091;-75
2021/04/26 16:29:24;;;;;;;3.72;2.40;;;;;;;19.09;33.55;94411.81;4967001;28;20037;-78
2021/04/26 16:31:49;;;;;;;4.50;2.35;;;;;;;18.95;34.14;94411.28;4967720;28;20420;-79
2021/04/26 16:34:15;;;;;;;3.50;2.20;;;;;;;18.79;34.70;94412.03;4950483;28;20404;-79
2021/04/26 16:36:40;;;;;;;4.15;2.08;;;;;;;18.67;34.86;94405.25;4967775;28;20037;-77
2021/04/26 16:39:06;;;;;;;2.50;2.30;;;;;;;18.54;35.52;94406.31;4950609;28;20035;-79